createdAt,value
2023-03-16T00:01:09.419Z,1.60
2023-03-16T00:03:36.922Z,1.70
2023-03-16T00:06:04.585Z,1.70
2023-03-16T00:08:31.950Z,1.58
2023-03-16T00:10:59.247Z,2.30
2023-03-16T00:13:26.531Z,1.42
2023-03-16T00:15:57.988Z,1.70
2023-03-16T00:18:28.880Z,1.75
2023-03-16T00:20:58.282Z,1.63
2023-03-16T00:23:29.348Z,1.20
2023-03-16T00:25:58.809Z,1.80
2023-03-16T00:28:26.754Z,1.42
2023-03-16T00:30:59.009Z,1.48
2023-03-16T00:33:26.877Z,1.73
2023-03-16T00:36:02.422Z,1.23
2023-03-16T00:38:37.115Z,1.08
2023-03-16T00:41:05.226Z,1.33
2023-03-16T00:43:40.891Z,1.50
2023-03-16T00:46:12.653Z,1.40
2023-03-16T00:48:42.666Z,1.10
2023-03-16T00:51:13.014Z,1.52
2023-03-16T00:53:41.489Z,1.40
2023-03-16T00:56:09.433Z,1.50
2023-03-16T00:58:37.734Z,1.33
2023-03-16T01:01:13.853Z,1.30
2023-03-16T01:03:41.579Z,1.33
2023-03-16T01:06:10.827Z,1.40
2023-03-16T01:08:38.931Z,1.13
2023-03-16T01:11:06.973Z,1.25
2023-03-16T01:13:34.645Z,1.67
2023-03-16T01:16:01.858Z,1.25
2023-03-16T01:18:29.572Z,1.48
2023-03-16T01:20:56.777Z,1.17
2023-03-16T01:23:24.117Z,1.58
2023-03-16T01:25:54.441Z,1.77
2023-03-16T01:28:26.207Z,1.13
2023-03-16T01:30:57.779Z,1.30
2023-03-16T01:33:26.346Z,1.40
2023-03-16T01:35:54.366Z,1.20
2023-03-16T01:38:22.011Z,1.38
2023-03-16T01:40:53.810Z,0.93
2023-03-16T01:43:25.059Z,1.20
2023-03-16T01:45:58.538Z,1.27
2023-03-16T01:48:27.255Z,2.22
2023-03-16T01:50:54.867Z,1.30
2023-03-16T01:53:23.275Z,1.25
2023-03-16T01:55:50.981Z,1.73
2023-03-16T01:58:18.655Z,1.50
2023-03-16T02:00:45.972Z,1.10
2023-03-16T02:03:16.237Z,1.38
2023-03-16T02:05:49.517Z,1.30
2023-03-16T02:08:17.523Z,4.00
2023-03-16T02:10:45.946Z,1.00
2023-03-16T02:13:13.483Z,1.23
2023-03-16T02:15:40.820Z,1.10
2023-03-16T02:18:08.766Z,1.98
2023-03-16T02:20:48.921Z,1.23
2023-03-16T02:23:21.131Z,1.15
2023-03-16T02:26:01.910Z,1.23
2023-03-16T02:28:34.801Z,1.30
2023-03-16T02:31:02.289Z,1.00
2023-03-16T02:33:31.723Z,1.35
2023-03-16T02:36:01.852Z,1.67
2023-03-16T02:38:29.108Z,1.40
2023-03-16T02:41:01.736Z,1.40
2023-03-16T02:43:33.460Z,1.40
2023-03-16T02:46:05.382Z,1.60
2023-03-16T02:48:36.706Z,1.08
2023-03-16T02:51:04.061Z,1.23
2023-03-16T02:53:31.300Z,1.35
2023-03-16T02:55:58.551Z,1.25
2023-03-16T02:58:25.807Z,1.67
2023-03-16T03:00:53.303Z,1.50
2023-03-16T03:03:20.650Z,1.65
2023-03-16T03:05:47.921Z,1.40
2023-03-16T03:08:15.370Z,3.30
2023-03-16T03:10:42.670Z,1.42
2023-03-16T03:13:09.899Z,1.48
2023-03-16T03:15:37.218Z,1.73
2023-03-16T03:18:04.565Z,1.40
2023-03-16T03:20:31.932Z,1.50
2023-03-16T03:22:59.163Z,2.03
2023-03-16T03:25:26.497Z,1.15
2023-03-16T03:27:54.686Z,1.50
2023-03-16T03:30:24.403Z,1.30
2023-03-16T03:32:52.563Z,1.65
2023-03-16T03:35:20.369Z,2.10
2023-03-16T03:37:47.853Z,1.25
2023-03-16T03:40:16.762Z,1.88
2023-03-16T03:42:44.506Z,2.15
2023-03-16T03:45:15.452Z,1.80
2023-03-16T03:47:43.050Z,1.48
2023-03-16T03:50:11.179Z,1.92
2023-03-16T03:52:38.381Z,1.40
2023-03-16T03:55:06.108Z,1.77
2023-03-16T03:57:33.394Z,1.83
2023-03-16T04:00:00.679Z,1.67
2023-03-16T04:02:28.057Z,2.22
2023-03-16T04:04:55.490Z,1.70
2023-03-16T04:07:22.729Z,2.00
2023-03-16T04:09:49.958Z,2.03
2023-03-16T04:12:17.218Z,1.40
2023-03-16T04:14:44.458Z,1.70
2023-03-16T04:17:12.506Z,1.50
2023-03-16T04:19:40.145Z,1.42
2023-03-16T04:22:07.839Z,1.42
2023-03-16T04:24:35.846Z,1.60
2023-03-16T04:27:03.270Z,1.75
2023-03-16T04:29:30.552Z,2.05
2023-03-16T04:31:57.754Z,1.67
2023-03-16T04:34:25.238Z,1.83
2023-03-16T04:36:53.222Z,1.50
2023-03-16T04:39:23.762Z,1.60
2023-03-16T04:41:51.543Z,1.85
2023-03-16T04:44:18.815Z,1.30
2023-03-16T04:46:46.149Z,1.38
2023-03-16T04:49:13.385Z,1.98
2023-03-16T04:51:42.625Z,1.17
2023-03-16T04:54:09.875Z,1.38
2023-03-16T04:56:37.225Z,1.63
2023-03-16T04:59:04.517Z,1.65
2023-03-16T05:01:33.042Z,1.85
2023-03-16T05:04:00.336Z,1.70
2023-03-16T05:06:27.628Z,1.40
2023-03-16T05:08:54.858Z,1.70
2023-03-16T05:11:22.080Z,1.55
2023-03-16T05:13:49.277Z,1.63
2023-03-16T05:16:16.770Z,1.42
2023-03-16T05:18:44.244Z,2.08
2023-03-16T05:21:12.823Z,1.55
2023-03-16T05:23:40.095Z,1.75
2023-03-16T05:26:07.771Z,3.67
2023-03-16T05:28:35.046Z,2.38
2023-03-16T05:31:03.976Z,2.17
2023-03-16T05:33:31.296Z,2.58
2023-03-16T05:35:58.638Z,2.53
2023-03-16T05:38:27.680Z,2.60
2023-03-16T05:40:55.126Z,2.33
2023-03-16T05:43:23.196Z,2.70
2023-03-16T05:45:50.522Z,1.90
2023-03-16T05:48:17.747Z,2.17
2023-03-16T05:50:44.977Z,2.58
2023-03-16T05:53:12.225Z,2.63
2023-03-16T05:55:39.435Z,2.78
2023-03-16T05:58:06.678Z,3.08
2023-03-16T06:00:34.007Z,3.30
2023-03-16T06:03:01.756Z,3.38
2023-03-16T06:05:29.683Z,4.00
2023-03-16T06:07:56.951Z,3.35
2023-03-16T06:10:26.739Z,3.10
2023-03-16T06:12:54.162Z,3.10
2023-03-16T06:15:25.105Z,2.42
2023-03-16T06:17:52.463Z,2.58
2023-03-16T06:20:19.775Z,2.70
2023-03-16T06:22:46.990Z,2.38
2023-03-16T06:25:14.900Z,2.60
2023-03-16T06:27:42.270Z,2.55
2023-03-16T06:30:12.099Z,2.55
2023-03-16T06:32:42.143Z,2.35
2023-03-16T06:35:10.163Z,3.33
2023-03-16T06:37:37.444Z,2.67
2023-03-16T06:40:05.158Z,2.42
2023-03-16T06:42:32.387Z,2.70
2023-03-16T06:44:59.627Z,2.97
2023-03-16T06:47:26.870Z,3.17
2023-03-16T06:49:55.393Z,4.03
2023-03-16T06:52:23.140Z,3.05
2023-03-16T06:54:50.453Z,3.22
2023-03-16T06:57:17.780Z,2.35
2023-03-16T06:59:44.973Z,2.60
2023-03-16T07:02:13.994Z,2.83
2023-03-16T07:04:42.134Z,3.25
2023-03-16T07:07:09.715Z,4.47
2023-03-16T07:09:39.615Z,7.07
2023-03-16T07:12:08.440Z,5.57
2023-03-16T07:14:35.693Z,4.32
2023-03-16T07:17:03.111Z,3.45
2023-03-16T07:19:30.417Z,3.50
2023-03-16T07:21:57.671Z,3.58
2023-03-16T07:24:24.918Z,3.70
2023-03-16T07:26:53.217Z,3.53
2023-03-16T07:29:20.497Z,2.28
2023-03-16T07:31:47.774Z,2.47
2023-03-16T07:34:14.994Z,2.45
2023-03-16T07:36:42.299Z,3.53
2023-03-16T07:39:10.060Z,3.20
2023-03-16T07:41:37.321Z,4.97
2023-03-16T07:44:04.599Z,4.40
2023-03-16T07:46:32.798Z,4.03
2023-03-16T07:49:00.189Z,2.70
2023-03-16T07:51:27.379Z,4.88
2023-03-16T07:53:54.666Z,5.28
2023-03-16T07:56:21.894Z,4.65
2023-03-16T07:58:49.105Z,3.78
2023-03-16T08:01:16.431Z,4.80
2023-03-16T08:03:44.781Z,4.30
2023-03-16T08:06:12.287Z,3.30
2023-03-16T08:08:39.511Z,3.17
2023-03-16T08:11:06.938Z,2.92
2023-03-16T08:13:35.440Z,2.78
2023-03-16T08:16:02.770Z,2.53
2023-03-16T08:18:30.323Z,1.50
2023-03-16T08:20:58.100Z,1.50
2023-03-16T08:23:26.059Z,1.50
2023-03-16T08:25:54.315Z,1.77
2023-03-16T08:28:21.923Z,1.05
2023-03-16T08:30:51.026Z,1.60
2023-03-16T08:33:22.575Z,1.45
2023-03-16T08:35:50.952Z,1.42
2023-03-16T08:38:19.390Z,0.93
2023-03-16T08:40:48.710Z,1.40
2023-03-16T08:43:17.263Z,1.52
2023-03-16T08:45:47.645Z,1.40
2023-03-16T08:48:15.141Z,1.15
2023-03-16T08:50:44.163Z,1.17
2023-03-16T08:53:12.535Z,1.38
2023-03-16T08:55:41.637Z,1.70
2023-03-16T08:58:09.508Z,1.52
2023-03-16T09:00:37.567Z,1.65
2023-03-16T09:03:05.125Z,1.70
2023-03-16T09:05:32.911Z,2.00
2023-03-16T09:08:01.633Z,1.83
2023-03-16T09:10:29.275Z,2.40
2023-03-16T09:12:56.814Z,2.30
2023-03-16T09:15:24.107Z,1.92
2023-03-16T09:17:51.870Z,2.47
2023-03-16T09:20:26.363Z,2.17
2023-03-16T09:22:55.427Z,2.83
2023-03-16T09:25:23.189Z,2.30
2023-03-16T09:27:50.814Z,1.77
2023-03-16T09:30:18.301Z,2.40
2023-03-16T09:32:48.856Z,1.80
2023-03-16T09:35:16.382Z,2.20
2023-03-16T09:38:01.064Z,2.38
2023-03-16T09:40:31.799Z,2.03
2023-03-16T09:43:11.842Z,2.78
2023-03-16T09:45:42.210Z,2.53
2023-03-16T09:48:10.598Z,2.45
2023-03-16T09:50:48.411Z,1.38
2023-03-16T09:53:25.436Z,2.83
2023-03-16T09:56:31.516Z,2.45
2023-03-16T09:58:59.577Z,2.42
2023-03-16T10:02:04.385Z,1.88
2023-03-16T10:04:59.355Z,1.77
2023-03-16T10:07:32.360Z,1.40
2023-03-16T10:10:25.807Z,1.70
2023-03-16T10:12:54.904Z,1.70
2023-03-16T10:15:24.673Z,2.58
2023-03-16T10:17:52.739Z,1.48
2023-03-16T10:20:21.766Z,2.00
2023-03-16T10:22:50.899Z,2.13
2023-03-16T10:25:27.400Z,2.65
2023-03-16T10:27:54.745Z,2.00
2023-03-16T10:30:24.748Z,2.17
2023-03-16T10:32:52.710Z,2.03
2023-03-16T10:35:25.866Z,3.08
2023-03-16T10:37:53.197Z,1.80
2023-03-16T10:40:20.768Z,2.80
2023-03-16T10:42:48.307Z,1.98
2023-03-16T10:45:21.481Z,2.72
2023-03-16T10:47:48.712Z,2.45
2023-03-16T10:50:20.805Z,2.53
2023-03-16T10:52:49.706Z,3.00
2023-03-16T10:55:20.428Z,2.97
2023-03-16T10:57:51.953Z,2.28
2023-03-16T11:00:26.584Z,2.45
2023-03-16T11:02:55.293Z,3.08
2023-03-16T11:05:33.049Z,1.98
2023-03-16T11:08:03.305Z,2.65
2023-03-16T11:10:30.502Z,3.22
2023-03-16T11:13:02.609Z,2.90
2023-03-16T11:15:37.117Z,2.90
2023-03-16T11:18:04.368Z,2.80
2023-03-16T11:20:34.322Z,3.00
2023-03-16T11:23:02.712Z,2.40
2023-03-16T11:25:30.584Z,3.13
2023-03-16T11:28:13.038Z,2.90
2023-03-16T11:30:55.365Z,1.52
2023-03-16T11:33:23.230Z,2.38
2023-03-16T11:35:58.649Z,2.85
2023-03-16T11:38:26.776Z,2.20
2023-03-16T11:41:10.619Z,2.08
2023-03-16T11:43:54.228Z,2.10
2023-03-16T11:46:24.485Z,1.75
2023-03-16T11:48:51.843Z,2.00
2023-03-16T11:51:22.094Z,1.00
2023-03-16T11:54:04.144Z,2.35
2023-03-16T11:56:43.720Z,1.60
2023-03-16T11:59:29.819Z,1.73
2023-03-16T12:02:03.091Z,1.85
2023-03-16T12:04:48.837Z,1.55
2023-03-16T12:09:44.526Z,1.30
2023-03-16T12:12:11.854Z,1.88
2023-03-16T12:14:53.880Z,1.73
2023-03-16T12:17:23.842Z,1.10
2023-03-16T12:19:51.027Z,1.70
2023-03-16T12:22:28.608Z,1.60
2023-03-16T12:24:55.872Z,1.65
2023-03-16T12:27:31.545Z,1.55
2023-03-16T12:30:02.540Z,1.15
2023-03-16T12:32:36.614Z,1.88
2023-03-16T12:35:25.086Z,1.42
2023-03-16T12:37:55.337Z,1.65
2023-03-16T12:40:23.023Z,2.00
2023-03-16T12:43:05.635Z,1.27
2023-03-16T12:45:37.245Z,1.88
2023-03-16T12:48:04.565Z,1.65
2023-03-16T12:50:31.913Z,1.88
2023-03-16T12:52:59.792Z,1.80
2023-03-16T12:55:40.389Z,1.70
2023-03-16T12:58:09.486Z,1.88
2023-03-16T13:00:38.617Z,1.70
2023-03-16T13:03:07.355Z,1.40
2023-03-16T13:05:38.834Z,1.13
2023-03-16T13:08:11.146Z,1.50
2023-03-16T13:10:39.126Z,1.38
2023-03-16T13:13:17.240Z,1.00
2023-03-16T13:15:49.677Z,1.25
2023-03-16T13:18:20.274Z,1.85
2023-03-16T13:20:53.666Z,2.47
2023-03-16T13:23:23.329Z,1.65
2023-03-16T13:26:01.815Z,1.60
2023-03-16T13:28:30.587Z,1.42
2023-03-16T13:30:58.115Z,1.63
2023-03-16T13:33:27.241Z,1.73
2023-03-16T13:35:56.136Z,1.67
2023-03-16T13:38:27.585Z,1.58
2023-03-16T13:40:57.257Z,1.50
2023-03-16T13:43:25.814Z,1.67
2023-03-16T13:45:53.137Z,5.20
2023-03-16T13:48:21.005Z,2.72
2023-03-16T13:50:57.894Z,1.70
2023-03-16T13:53:29.027Z,1.70
2023-03-16T13:55:57.264Z,1.58
2023-03-16T13:58:27.648Z,1.30
2023-03-16T14:00:59.183Z,1.38
2023-03-16T14:03:33.162Z,2.17
2023-03-16T14:06:01.882Z,3.28
2023-03-16T14:08:30.015Z,1.58
2023-03-16T14:11:01.064Z,1.20
2023-03-16T14:13:29.131Z,1.33
2023-03-16T14:15:57.683Z,1.45
2023-03-16T14:18:28.239Z,1.40
2023-03-16T14:20:56.251Z,1.00
2023-03-16T14:23:28.877Z,1.25
2023-03-16T14:25:56.203Z,0.85
2023-03-16T14:28:29.495Z,1.20
2023-03-16T14:31:03.833Z,1.30
2023-03-16T14:33:33.000Z,1.15
2023-03-16T14:36:01.517Z,1.00
2023-03-16T14:38:40.638Z,1.20
2023-03-16T14:41:17.869Z,1.00
2023-03-16T14:44:04.393Z,0.98
2023-03-16T14:46:33.619Z,1.13
2023-03-16T14:49:19.042Z,1.42
2023-03-16T14:51:47.449Z,1.10
2023-03-16T14:54:16.410Z,1.33
2023-03-16T14:56:44.237Z,1.92
2023-03-16T14:59:11.475Z,1.75
2023-03-16T15:01:38.804Z,1.30
2023-03-16T15:04:07.503Z,1.45
2023-03-16T15:06:35.286Z,0.95
2023-03-16T15:09:02.612Z,1.20
2023-03-16T15:11:31.778Z,1.00
2023-03-16T15:14:14.894Z,0.98
2023-03-16T15:16:42.575Z,1.15
2023-03-16T15:19:10.233Z,1.00
2023-03-16T15:21:37.465Z,1.30
2023-03-16T15:24:04.730Z,1.25
2023-03-16T15:26:32.814Z,1.10
2023-03-16T15:29:00.124Z,0.75
2023-03-16T15:31:27.456Z,1.17
2023-03-16T15:33:54.752Z,1.30
2023-03-16T15:36:22.528Z,1.30
2023-03-16T15:38:53.208Z,1.90
2023-03-16T15:41:20.582Z,0.80
2023-03-16T15:43:48.136Z,1.10
2023-03-16T15:46:15.547Z,1.10
2023-03-16T15:48:44.518Z,1.50
2023-03-16T15:51:14.574Z,1.08
2023-03-16T15:53:41.796Z,1.08
2023-03-16T15:56:13.515Z,1.00
2023-03-16T15:58:41.988Z,1.00
2023-03-16T16:01:09.889Z,1.02
2023-03-16T16:03:37.162Z,1.15
2023-03-16T16:06:04.627Z,1.00
2023-03-16T16:08:32.192Z,0.60
2023-03-16T16:10:59.979Z,1.70
2023-03-16T16:13:43.133Z,0.82
2023-03-16T16:16:14.787Z,1.48
2023-03-16T16:18:42.437Z,0.90
2023-03-16T16:21:15.339Z,1.10
2023-03-16T16:23:43.120Z,0.80
2023-03-16T16:26:41.643Z,0.90
2023-03-16T16:29:16.802Z,1.90
2023-03-16T16:31:44.457Z,1.38
2023-03-16T16:34:16.019Z,0.77
2023-03-16T16:36:43.463Z,1.20
2023-03-16T16:39:11.168Z,1.25
2023-03-16T16:41:38.893Z,0.80
2023-03-16T16:44:08.504Z,1.42
2023-03-16T16:46:43.966Z,0.73
2023-03-16T16:49:14.286Z,1.00
2023-03-16T16:51:42.804Z,1.50
2023-03-16T16:54:17.240Z,1.08
2023-03-16T16:56:44.813Z,1.17
2023-03-16T16:59:18.189Z,1.20
2023-03-16T17:01:46.909Z,0.98
2023-03-16T17:04:18.869Z,2.00
2023-03-16T17:06:46.905Z,1.08
2023-03-16T17:09:14.468Z,1.25
2023-03-16T17:11:42.782Z,1.17
2023-03-16T17:14:10.500Z,1.42
2023-03-16T17:16:38.129Z,1.33
2023-03-16T17:19:07.130Z,1.27
2023-03-16T17:21:34.696Z,2.92
2023-03-16T17:24:02.792Z,2.33
2023-03-16T17:26:33.027Z,1.90
2023-03-16T17:29:14.999Z,1.90
2023-03-16T17:31:43.058Z,1.73
2023-03-16T17:34:16.788Z,1.42
2023-03-16T17:36:44.700Z,1.15
2023-03-16T17:39:22.456Z,2.10
2023-03-16T17:41:55.426Z,1.60
2023-03-16T17:44:22.907Z,1.40
2023-03-16T17:46:50.357Z,1.80
2023-03-16T17:49:20.022Z,1.20
2023-03-16T17:51:47.953Z,1.15
2023-03-16T17:54:15.228Z,1.55
2023-03-16T17:56:42.481Z,1.27
2023-03-16T17:59:20.247Z,1.45
2023-03-16T18:01:47.885Z,1.30
2023-03-16T18:04:19.489Z,1.70
2023-03-16T18:06:49.602Z,1.30
2023-03-16T18:09:17.965Z,1.08
2023-03-16T18:11:49.007Z,2.42
2023-03-16T18:14:19.658Z,1.63
2023-03-16T18:16:47.204Z,1.48
2023-03-16T18:19:21.216Z,1.58
2023-03-16T18:21:49.184Z,1.45
2023-03-16T18:24:16.664Z,1.55
2023-03-16T18:26:44.109Z,1.40
2023-03-16T18:29:11.356Z,2.15
2023-03-16T18:31:38.665Z,1.38
2023-03-16T18:34:06.975Z,1.48
2023-03-16T18:36:35.697Z,1.35
2023-03-16T18:39:05.809Z,0.93
2023-03-16T18:41:33.973Z,1.20
2023-03-16T18:44:02.706Z,1.52
2023-03-16T18:46:31.479Z,1.70
2023-03-16T18:48:59.957Z,2.38
2023-03-16T18:51:27.536Z,1.70
2023-03-16T18:53:55.326Z,1.60
2023-03-16T18:56:23.880Z,1.80
2023-03-16T18:58:52.660Z,1.50
2023-03-16T19:01:28.089Z,1.52
2023-03-16T19:03:56.398Z,2.45
2023-03-16T19:06:34.961Z,2.88
2023-03-16T19:09:05.901Z,2.00
2023-03-16T19:11:33.736Z,1.52
2023-03-16T19:14:01.451Z,1.70
2023-03-16T19:16:28.823Z,1.40
2023-03-16T19:18:56.147Z,2.20
2023-03-16T19:21:23.409Z,1.80
2023-03-16T19:23:55.042Z,1.50
2023-03-16T19:26:22.905Z,1.55
2023-03-16T19:28:50.172Z,2.10
2023-03-16T19:31:19.306Z,1.75
2023-03-16T19:33:46.894Z,2.22
2023-03-16T19:36:22.742Z,2.20
2023-03-16T19:38:50.587Z,1.95
2023-03-16T19:41:20.954Z,2.05
2023-03-16T19:43:48.214Z,1.58
2023-03-16T19:46:16.293Z,3.47
2023-03-16T19:48:43.920Z,1.70
2023-03-16T19:51:15.179Z,1.85
2023-03-16T19:53:42.860Z,1.90
2023-03-16T19:56:13.789Z,1.70
2023-03-16T19:58:42.750Z,2.17
2023-03-16T20:01:17.942Z,2.10
2023-03-16T20:03:46.525Z,1.80
2023-03-16T20:06:15.622Z,1.80
2023-03-16T20:08:44.176Z,1.65
2023-03-16T20:11:32.242Z,1.52
2023-03-16T20:13:59.946Z,1.80
2023-03-16T20:16:32.298Z,1.63
2023-03-16T20:19:00.708Z,1.58
2023-03-16T20:21:28.416Z,1.73
2023-03-16T20:23:55.779Z,1.70
2023-03-16T20:26:23.131Z,2.17
2023-03-16T20:28:51.042Z,2.38
2023-03-16T20:31:29.797Z,3.83
2023-03-16T20:33:57.065Z,2.90
2023-03-16T20:36:25.442Z,1.55
2023-03-16T20:38:52.975Z,1.80
2023-03-16T20:41:26.407Z,1.33
2023-03-16T20:43:54.565Z,1.27
2023-03-16T20:46:24.589Z,1.80
2023-03-16T20:48:52.007Z,1.63
2023-03-16T20:51:19.293Z,1.80
2023-03-16T20:53:47.412Z,2.00
2023-03-16T20:56:16.363Z,1.75
2023-03-16T20:58:45.080Z,1.80
2023-03-16T21:01:21.521Z,1.80
2023-03-16T21:03:50.399Z,1.77
2023-03-16T21:06:23.737Z,3.08
2023-03-16T21:08:54.648Z,3.83
2023-03-16T21:11:31.359Z,3.67
2023-03-16T21:13:58.769Z,1.70
2023-03-16T21:16:26.866Z,1.70
2023-03-16T21:18:54.226Z,1.98
2023-03-16T21:21:21.737Z,1.90
2023-03-16T21:23:48.969Z,1.75
2023-03-16T21:26:17.781Z,5.35
2023-03-16T21:28:47.262Z,2.05
2023-03-16T21:31:19.575Z,2.83
2023-03-16T21:33:47.140Z,2.65
2023-03-16T21:36:17.035Z,3.40
2023-03-16T21:38:44.629Z,2.60
2023-03-16T21:41:12.299Z,2.38
2023-03-16T21:43:39.813Z,2.30
2023-03-16T21:46:11.080Z,2.00
2023-03-16T21:48:40.207Z,2.60
2023-03-16T21:51:13.738Z,2.45
2023-03-16T21:53:41.204Z,2.33
2023-03-16T21:56:11.656Z,2.60
2023-03-16T21:58:38.882Z,2.80
2023-03-16T22:01:06.224Z,2.05
2023-03-16T22:03:50.159Z,2.00
2023-03-16T22:06:18.375Z,1.90
2023-03-16T22:08:45.614Z,3.78
2023-03-16T22:11:20.149Z,2.10
2023-03-16T22:13:47.620Z,2.30
2023-03-16T22:16:19.113Z,2.40
2023-03-16T22:18:47.323Z,2.15
2023-03-16T22:21:28.177Z,2.20
2023-03-16T22:23:56.103Z,2.40
2023-03-16T22:26:23.748Z,2.50
2023-03-16T22:28:51.983Z,1.70
2023-03-16T22:31:20.986Z,2.55
2023-03-16T22:33:49.025Z,2.60
2023-03-16T22:36:18.617Z,2.22
2023-03-16T22:38:46.475Z,1.92
2023-03-16T22:41:14.958Z,2.28
2023-03-16T22:43:44.606Z,2.30
2023-03-16T22:46:30.102Z,1.90
2023-03-16T22:48:57.948Z,2.10
2023-03-16T22:51:36.479Z,2.20
2023-03-16T22:54:05.650Z,2.20
2023-03-16T22:56:33.353Z,1.60
2023-03-16T22:59:04.961Z,2.30
2023-03-16T23:01:36.561Z,2.63
2023-03-16T23:04:04.334Z,3.60
2023-03-16T23:06:32.680Z,2.17
2023-03-16T23:08:59.990Z,2.10
2023-03-16T23:11:28.810Z,1.90
2023-03-16T23:13:56.259Z,2.00
2023-03-16T23:16:25.479Z,2.35
2023-03-16T23:18:53.185Z,2.17
2023-03-16T23:21:24.640Z,2.35
2023-03-16T23:24:03.120Z,2.15
2023-03-16T23:26:31.541Z,2.72
2023-03-16T23:28:59.167Z,2.90
2023-03-16T23:31:27.298Z,2.65
2023-03-16T23:33:54.561Z,2.60
2023-03-16T23:36:22.829Z,2.50
2023-03-16T23:38:50.526Z,2.70
2023-03-16T23:41:23.519Z,2.67
2023-03-16T23:43:51.263Z,2.38
2023-03-16T23:46:22.218Z,2.60
2023-03-16T23:48:49.996Z,2.50
2023-03-16T23:51:22.108Z,2.42
2023-03-16T23:53:50.086Z,2.50
2023-03-16T23:56:18.005Z,2.45
2023-03-16T23:58:45.547Z,4.07
